createdAt,value
2022-08-20T00:00:44.116Z,82.23
2022-08-20T00:01:48.932Z,82.55
2022-08-20T00:03:01.781Z,82.21
2022-08-20T00:04:05.747Z,82.28
2022-08-20T00:05:13.098Z,82.65
2022-08-20T00:06:22.316Z,82.35
2022-08-20T00:07:26.145Z,82.27
2022-08-20T00:08:31.111Z,82.31
2022-08-20T00:09:36.430Z,82.73
2022-08-20T00:10:47.642Z,83.03
2022-08-20T00:11:56.555Z,82.59
2022-08-20T00:13:02.344Z,82.80
2022-08-20T00:14:07.484Z,83.17
2022-08-20T00:15:14.838Z,82.96
2022-08-20T00:16:22.070Z,83.08
2022-08-20T00:17:26.047Z,83.24
2022-08-20T00:18:30.449Z,83.34
2022-08-20T00:19:34.930Z,84.22
2022-08-20T00:20:45.937Z,83.85
2022-08-20T00:21:50.312Z,84.05
2022-08-20T00:22:59.636Z,84.06
2022-08-20T00:24:04.673Z,83.82
2022-08-20T00:25:11.658Z,83.90
2022-08-20T00:26:16.500Z,83.80
2022-08-20T00:27:20.303Z,83.75
2022-08-20T00:28:24.285Z,83.41
2022-08-20T00:29:28.846Z,83.63
2022-08-20T00:30:35.667Z,83.49
2022-08-20T00:31:39.500Z,83.51
2022-08-20T00:32:58.854Z,83.78
2022-08-20T00:34:02.654Z,83.18
2022-08-20T00:35:08.923Z,83.38
2022-08-20T00:36:18.765Z,83.45
2022-08-20T00:37:22.982Z,83.02
2022-08-20T00:38:27.032Z,83.12
2022-08-20T00:39:30.809Z,82.86
2022-08-20T00:40:55.928Z,83.02
2022-08-20T00:41:59.956Z,82.90
2022-08-20T00:43:23.960Z,82.79
2022-08-20T00:44:28.420Z,82.85
2022-08-20T00:45:35.280Z,82.57
2022-08-20T00:46:41.226Z,82.46
2022-08-20T00:47:51.082Z,82.62
2022-08-20T00:48:58.710Z,82.30
2022-08-20T00:50:06.687Z,82.77
2022-08-20T00:51:38.523Z,82.86
2022-08-20T00:52:49.745Z,82.16
2022-08-20T00:54:00.414Z,82.44
2022-08-20T00:55:08.089Z,82.63
2022-08-20T00:56:13.845Z,82.31
2022-08-20T00:57:53.305Z,82.58
2022-08-20T00:59:05.541Z,81.86
2022-08-20T01:00:28.389Z,82.02
2022-08-20T01:01:48.171Z,81.71
2022-08-20T01:03:00.784Z,81.73
2022-08-20T01:04:10.988Z,81.60
2022-08-20T01:05:15.739Z,81.60
2022-08-20T01:06:19.843Z,81.58
2022-08-20T01:07:38.459Z,81.84
2022-08-20T01:08:43.521Z,81.42
2022-08-20T01:09:59.022Z,81.48
2022-08-20T01:11:09.808Z,81.90
2022-08-20T01:12:16.980Z,82.16
2022-08-20T01:13:25.919Z,82.61
2022-08-20T01:14:46.220Z,82.53
2022-08-20T01:15:55.608Z,82.76
2022-08-20T01:17:08.715Z,83.02
2022-08-20T01:18:25.378Z,83.13
2022-08-20T01:19:46.336Z,82.94
2022-08-20T01:20:56.488Z,83.02
2022-08-20T01:22:24.043Z,83.00
2022-08-20T01:24:15.142Z,83.18
2022-08-20T01:25:56.936Z,82.65
2022-08-20T01:27:04.701Z,82.69
2022-08-20T01:28:10.675Z,83.13
2022-08-20T01:29:21.749Z,83.02
2022-08-20T01:30:29.808Z,83.19
2022-08-20T01:31:38.436Z,82.89
2022-08-20T01:32:42.710Z,82.79
2022-08-20T01:33:47.908Z,82.76
2022-08-20T01:34:51.863Z,83.06
2022-08-20T01:35:56.156Z,82.91
2022-08-20T01:37:01.155Z,82.64
2022-08-20T01:38:07.447Z,82.75
2022-08-20T01:39:15.978Z,82.76
2022-08-20T01:40:53.231Z,83.06
2022-08-20T01:42:19.696Z,82.94
2022-08-20T01:43:24.516Z,82.74
2022-08-20T01:44:30.994Z,82.73
2022-08-20T01:45:36.998Z,82.84
2022-08-20T01:46:47.635Z,82.82
2022-08-20T01:47:51.663Z,82.65
2022-08-20T01:48:57.924Z,82.80
2022-08-20T01:50:26.262Z,83.08
2022-08-20T01:51:31.409Z,82.92
2022-08-20T01:53:07.047Z,82.84
2022-08-20T01:54:11.536Z,82.93
2022-08-20T01:55:16.560Z,82.97
2022-08-20T01:56:27.219Z,83.06
2022-08-20T01:57:32.410Z,82.80
2022-08-20T01:58:43.371Z,82.97
2022-08-20T01:59:50.912Z,82.56
2022-08-20T02:00:54.905Z,82.75
2022-08-20T02:02:04.121Z,82.70
2022-08-20T02:03:08.948Z,82.66
2022-08-20T02:04:18.192Z,82.89
2022-08-20T02:05:22.895Z,82.75
2022-08-20T02:06:29.038Z,82.84
2022-08-20T02:07:33.622Z,82.77
2022-08-20T02:08:38.475Z,82.70
2022-08-20T02:09:43.240Z,83.11
2022-08-20T02:10:47.417Z,82.89
2022-08-20T02:11:53.524Z,82.57
2022-08-20T02:12:59.272Z,83.02
2022-08-20T02:14:07.895Z,82.85
2022-08-20T02:15:15.101Z,82.78
2022-08-20T02:16:25.780Z,82.81
2022-08-20T02:17:30.549Z,82.68
2022-08-20T02:18:34.688Z,82.95
2022-08-20T02:19:48.983Z,83.23
2022-08-20T02:20:53.589Z,82.85
2022-08-20T02:22:07.039Z,82.95
2022-08-20T02:23:13.128Z,82.99
2022-08-20T02:24:17.905Z,82.99
2022-08-20T02:25:30.692Z,82.86
2022-08-20T02:26:38.324Z,82.98
2022-08-20T02:27:49.049Z,83.66
2022-08-20T02:28:56.523Z,84.13
2022-08-20T02:30:27.448Z,84.19
2022-08-20T02:31:34.926Z,83.87
2022-08-20T02:32:41.468Z,83.92
2022-08-20T02:34:21.909Z,83.86
2022-08-20T02:35:13.549Z,84.00
2022-08-20T02:36:20.253Z,84.14
2022-08-20T02:37:24.479Z,83.83
2022-08-20T02:38:28.532Z,84.03
2022-08-20T02:39:33.573Z,84.11
2022-08-20T02:40:38.201Z,84.35
2022-08-20T02:41:42.616Z,83.76
2022-08-20T02:42:47.216Z,83.76
2022-08-20T02:43:51.546Z,83.61
2022-08-20T02:44:58.778Z,83.81
2022-08-20T02:46:03.732Z,83.70
2022-08-20T02:47:08.115Z,83.80
2022-08-20T02:48:23.794Z,84.06
2022-08-20T02:49:27.787Z,83.92
2022-08-20T02:50:32.864Z,84.15
2022-08-20T02:51:37.351Z,84.22
2022-08-20T02:52:47.178Z,84.45
2022-08-20T02:53:56.006Z,84.35
2022-08-20T02:54:59.926Z,84.62
2022-08-20T02:56:07.610Z,84.75
2022-08-20T02:57:20.968Z,84.71
2022-08-20T02:58:25.663Z,84.85
2022-08-20T02:59:29.783Z,84.74
2022-08-20T03:00:37.982Z,84.81
2022-08-20T03:01:42.846Z,84.84
2022-08-20T03:02:48.713Z,85.19
2022-08-20T03:03:52.599Z,85.17
2022-08-20T03:04:57.176Z,84.94
2022-08-20T03:06:01.894Z,85.61
2022-08-20T03:07:07.522Z,85.33
2022-08-20T03:08:15.259Z,85.24
2022-08-20T03:09:19.871Z,84.98
2022-08-20T03:10:34.369Z,85.38
2022-08-20T03:11:39.610Z,85.32
2022-08-20T03:12:43.458Z,84.92
2022-08-20T03:13:49.208Z,84.90
2022-08-20T03:14:53.195Z,84.92
2022-08-20T03:16:00.690Z,85.19
2022-08-20T03:17:05.924Z,85.40
2022-08-20T03:18:10.491Z,85.28
2022-08-20T03:19:14.676Z,85.37
2022-08-20T03:20:22.412Z,85.51
2022-08-20T03:21:32.840Z,85.91
2022-08-20T03:22:40.468Z,85.77
2022-08-20T03:23:44.343Z,86.09
2022-08-20T03:24:48.200Z,86.21
2022-08-20T03:25:52.393Z,86.36
2022-08-20T03:26:56.519Z,85.89
2022-08-20T03:28:01.324Z,86.12
2022-08-20T03:29:05.542Z,86.32
2022-08-20T03:30:14.027Z,86.25
2022-08-20T03:31:18.620Z,86.35
2022-08-20T03:32:23.318Z,86.46
2022-08-20T03:33:29.509Z,86.78
2022-08-20T03:34:33.826Z,86.80
2022-08-20T03:35:39.424Z,86.88
2022-08-20T03:36:43.266Z,87.04
2022-08-20T03:37:55.493Z,87.19
2022-08-20T03:39:04.732Z,87.30
2022-08-20T03:40:15.802Z,87.50
2022-08-20T03:41:20.215Z,87.14
2022-08-20T03:42:24.021Z,87.19
2022-08-20T03:43:28.498Z,87.49
2022-08-20T03:44:32.860Z,87.39
2022-08-20T03:45:40.210Z,87.54
2022-08-20T03:46:44.105Z,87.43
2022-08-20T03:47:49.808Z,87.24
2022-08-20T03:49:00.236Z,87.24
2022-08-20T03:50:11.120Z,87.21
2022-08-20T03:51:27.101Z,86.82
2022-08-20T03:52:31.154Z,87.00
2022-08-20T03:53:36.015Z,86.98
2022-08-20T03:54:40.435Z,87.24
2022-08-20T03:55:56.442Z,87.20
2022-08-20T03:57:12.302Z,87.18
2022-08-20T03:58:18.170Z,87.18
2022-08-20T03:59:22.164Z,87.47
2022-08-20T04:00:45.547Z,87.28
2022-08-20T04:01:49.413Z,87.41
2022-08-20T04:02:53.745Z,87.30
2022-08-20T04:03:58.819Z,87.67
2022-08-20T04:05:04.678Z,87.41
2022-08-20T04:06:09.684Z,87.50
2022-08-20T04:07:20.777Z,87.51
2022-08-20T04:08:29.677Z,87.24
2022-08-20T04:09:33.672Z,87.33
2022-08-20T04:10:38.283Z,87.29
2022-08-20T04:11:43.306Z,87.45
2022-08-20T04:12:53.072Z,87.32
2022-08-20T04:13:57.133Z,87.27
2022-08-20T04:15:02.070Z,86.99
2022-08-20T04:16:11.284Z,87.31
2022-08-20T04:17:20.745Z,87.05
2022-08-20T04:18:26.862Z,87.08
2022-08-20T04:19:34.227Z,87.13
2022-08-20T04:20:41.514Z,86.90
2022-08-20T04:21:48.837Z,86.83
2022-08-20T04:22:59.082Z,86.74
2022-08-20T04:24:08.472Z,86.65
2022-08-20T04:25:36.161Z,86.39
2022-08-20T04:26:40.130Z,86.61
2022-08-20T04:27:46.394Z,86.65
2022-08-20T04:28:55.879Z,86.41
2022-08-20T04:30:04.219Z,86.35
2022-08-20T04:31:09.286Z,86.29
2022-08-20T04:32:14.297Z,86.12
2022-08-20T04:33:35.140Z,85.92
2022-08-20T04:34:40.915Z,85.83
2022-08-20T04:35:48.806Z,86.04
2022-08-20T04:36:54.651Z,86.14
2022-08-20T04:38:14.190Z,85.69
2022-08-20T04:39:19.136Z,85.66
2022-08-20T04:40:41.875Z,85.46
2022-08-20T04:41:45.756Z,85.48
2022-08-20T04:42:49.761Z,85.35
2022-08-20T04:43:58.933Z,84.97
2022-08-20T04:45:04.447Z,85.10
2022-08-20T04:46:17.158Z,85.18
2022-08-20T04:47:23.919Z,85.03
2022-08-20T04:48:42.147Z,84.62
2022-08-20T04:49:53.089Z,84.75
2022-08-20T04:51:03.966Z,84.27
2022-08-20T04:52:07.863Z,84.15
2022-08-20T04:53:20.692Z,84.03
2022-08-20T04:54:27.297Z,84.28
2022-08-20T04:55:32.550Z,84.45
2022-08-20T04:56:40.152Z,84.43
2022-08-20T04:57:46.295Z,84.86
2022-08-20T04:58:51.571Z,84.84
2022-08-20T04:59:59.361Z,85.07
2022-08-20T05:01:11.562Z,85.28
2022-08-20T05:02:19.104Z,85.16
2022-08-20T05:03:24.408Z,85.11
2022-08-20T05:04:29.131Z,85.04
2022-08-20T05:05:35.444Z,84.94
2022-08-20T05:06:41.272Z,84.48
2022-08-20T05:07:47.128Z,84.72
2022-08-20T05:08:51.301Z,84.43
2022-08-20T05:09:55.195Z,84.09
2022-08-20T05:11:32.633Z,83.80
2022-08-20T05:12:24.278Z,83.31
2022-08-20T05:13:28.836Z,83.11
2022-08-20T05:14:32.792Z,82.61
2022-08-20T05:15:39.087Z,82.45
2022-08-20T05:16:42.892Z,82.38
2022-08-20T05:17:47.083Z,82.73
2022-08-20T05:18:52.900Z,82.28
2022-08-20T05:19:59.356Z,82.09
2022-08-20T05:21:07.440Z,82.04
2022-08-20T05:22:11.958Z,81.38
2022-08-20T05:23:20.103Z,81.52
2022-08-20T05:24:25.205Z,80.96
2022-08-20T05:25:30.989Z,80.50
2022-08-20T05:26:35.230Z,80.24
2022-08-20T05:27:39.774Z,80.14
2022-08-20T05:28:54.146Z,79.79
2022-08-20T05:30:13.679Z,79.53
2022-08-20T05:31:21.254Z,79.49
2022-08-20T05:32:25.593Z,79.04
2022-08-20T05:33:30.294Z,78.83
2022-08-20T05:34:34.297Z,78.48
2022-08-20T05:35:41.380Z,77.73
2022-08-20T05:36:49.276Z,77.11
2022-08-20T05:37:54.454Z,76.50
2022-08-20T05:38:58.590Z,76.02
2022-08-20T05:40:02.820Z,75.52
2022-08-20T05:41:06.826Z,75.07
2022-08-20T05:42:12.136Z,74.38
2022-08-20T05:43:16.523Z,73.71
2022-08-20T05:44:23.516Z,73.28
2022-08-20T05:45:27.526Z,73.13
2022-08-20T05:46:32.489Z,72.39
2022-08-20T05:47:42.892Z,71.87
2022-08-20T05:48:47.787Z,72.02
2022-08-20T05:49:52.326Z,70.79
2022-08-20T05:50:58.054Z,70.93
2022-08-20T05:52:02.109Z,70.87
2022-08-20T05:53:07.233Z,70.79
2022-08-20T05:54:15.402Z,70.87
2022-08-20T05:55:19.370Z,70.73
2022-08-20T05:56:26.817Z,70.13
2022-08-20T05:57:31.063Z,69.93
2022-08-20T05:58:34.964Z,70.32
2022-08-20T05:59:39.744Z,69.87
2022-08-20T06:00:43.848Z,69.93
2022-08-20T06:01:47.853Z,69.62
2022-08-20T06:03:10.809Z,69.65
2022-08-20T06:04:32.259Z,68.70
2022-08-20T06:05:36.202Z,68.62
2022-08-20T06:06:45.651Z,68.42
2022-08-20T06:07:54.871Z,67.93
2022-08-20T06:09:13.760Z,67.86
2022-08-20T06:10:18.506Z,67.20
2022-08-20T06:11:23.292Z,66.33
2022-08-20T06:12:27.550Z,65.88
2022-08-20T06:13:31.570Z,65.87
2022-08-20T06:14:36.389Z,65.16
2022-08-20T06:15:40.512Z,65.21
2022-08-20T06:16:57.176Z,64.70
2022-08-20T06:18:27.357Z,64.08
2022-08-20T06:19:34.163Z,63.26
2022-08-20T06:20:39.700Z,63.59
2022-08-20T06:21:43.649Z,63.36
2022-08-20T06:22:47.571Z,63.55
2022-08-20T06:23:57.458Z,63.61
2022-08-20T06:25:08.510Z,63.41
2022-08-20T06:26:12.697Z,63.56
2022-08-20T06:27:17.844Z,63.28
2022-08-20T06:28:24.487Z,63.57
2022-08-20T06:29:36.913Z,63.29
2022-08-20T06:30:43.843Z,63.40
2022-08-20T06:31:47.725Z,63.34
2022-08-20T06:32:52.979Z,63.03
2022-08-20T06:33:57.247Z,63.28
2022-08-20T06:35:04.798Z,62.84
2022-08-20T06:36:09.612Z,62.34
2022-08-20T06:37:21.581Z,62.43
2022-08-20T06:38:25.769Z,62.53
2022-08-20T06:39:31.558Z,62.40
2022-08-20T06:40:35.514Z,61.96
2022-08-20T06:41:39.618Z,61.34
2022-08-20T06:42:48.513Z,61.26
2022-08-20T06:43:54.090Z,60.73
2022-08-20T06:44:59.929Z,60.18
2022-08-20T06:46:05.041Z,60.30
2022-08-20T06:47:09.797Z,60.33
2022-08-20T06:48:15.466Z,60.32
2022-08-20T06:49:19.583Z,60.46
2022-08-20T06:50:33.235Z,60.83
2022-08-20T06:51:40.043Z,61.14
2022-08-20T06:52:52.938Z,60.87
2022-08-20T06:53:58.206Z,61.39
2022-08-20T06:55:02.183Z,61.05
2022-08-20T06:56:06.812Z,61.17
2022-08-20T06:57:10.853Z,61.16
2022-08-20T06:58:30.521Z,61.54
2022-08-20T06:59:40.150Z,60.99
2022-08-20T07:00:45.531Z,61.59
2022-08-20T07:01:50.315Z,60.65
2022-08-20T07:02:55.739Z,60.18
2022-08-20T07:04:00.566Z,60.46
2022-08-20T07:05:07.051Z,60.48
2022-08-20T07:06:11.861Z,60.29
2022-08-20T07:07:19.984Z,60.39
2022-08-20T07:08:23.886Z,59.94
2022-08-20T07:09:28.577Z,60.39
2022-08-20T07:10:32.435Z,60.08
2022-08-20T07:11:36.540Z,60.16
2022-08-20T07:12:40.858Z,60.76
2022-08-20T07:13:45.579Z,60.76
2022-08-20T07:14:49.436Z,60.34
2022-08-20T07:15:53.995Z,60.61
2022-08-20T07:16:58.836Z,60.58
2022-08-20T07:18:05.765Z,60.40
2022-08-20T07:19:10.130Z,60.04
2022-08-20T07:20:16.072Z,60.49
2022-08-20T07:21:19.848Z,60.29
2022-08-20T07:22:24.989Z,60.43
2022-08-20T07:23:31.824Z,60.29
2022-08-20T07:24:37.886Z,59.91
2022-08-20T07:25:45.419Z,60.36
2022-08-20T07:26:52.246Z,60.10
2022-08-20T07:28:08.264Z,59.79
2022-08-20T07:29:13.585Z,59.64
2022-08-20T07:30:56.965Z,59.74
2022-08-20T07:32:22.436Z,58.38
2022-08-20T07:33:33.520Z,57.05
2022-08-20T07:34:37.929Z,56.43
2022-08-20T07:35:49.310Z,55.07
2022-08-20T07:36:53.307Z,54.11
2022-08-20T07:37:59.806Z,53.33
2022-08-20T07:39:08.006Z,52.41
2022-08-20T07:40:33.976Z,51.09
2022-08-20T07:41:37.913Z,48.91
2022-08-20T07:42:42.419Z,46.74
2022-08-20T07:43:48.454Z,44.77
2022-08-20T07:44:52.894Z,43.79
2022-08-20T07:46:03.510Z,42.88
2022-08-20T07:47:07.737Z,41.97
2022-08-20T07:48:14.513Z,41.16
2022-08-20T07:49:39.803Z,41.10
2022-08-20T07:50:44.233Z,41.67
2022-08-20T07:51:48.138Z,41.96
2022-08-20T07:52:53.308Z,42.01
2022-08-20T07:53:59.562Z,42.04
2022-08-20T07:55:11.609Z,42.60
2022-08-20T07:56:21.530Z,42.54
2022-08-20T07:57:25.356Z,42.60
2022-08-20T07:58:33.390Z,42.73
2022-08-20T07:59:38.673Z,42.79
2022-08-20T08:00:44.332Z,43.38
2022-08-20T08:01:48.398Z,43.98
2022-08-20T08:02:53.228Z,44.67
2022-08-20T08:03:58.788Z,45.05
2022-08-20T08:05:04.370Z,45.27
2022-08-20T08:06:10.024Z,45.44
2022-08-20T08:07:18.438Z,44.79
2022-08-20T08:08:28.647Z,44.53
2022-08-20T08:09:34.819Z,43.22
2022-08-20T08:10:41.072Z,42.20
2022-08-20T08:11:50.951Z,41.03
2022-08-20T08:13:01.031Z,39.81
2022-08-20T08:14:10.386Z,39.26
2022-08-20T08:15:22.752Z,39.32
2022-08-20T08:16:28.106Z,39.68
2022-08-20T08:17:32.067Z,39.04
2022-08-20T08:18:50.075Z,37.83
2022-08-20T08:19:54.178Z,36.75
2022-08-20T08:20:58.266Z,36.54
2022-08-20T08:22:02.343Z,35.93
2022-08-20T08:23:07.897Z,36.02
2022-08-20T08:24:24.311Z,36.83
2022-08-20T08:25:32.682Z,37.21
2022-08-20T08:26:36.702Z,37.79
2022-08-20T08:27:41.175Z,37.93
2022-08-20T08:28:45.219Z,37.86
2022-08-20T08:29:50.128Z,38.00
2022-08-20T08:30:54.742Z,37.30
2022-08-20T08:32:02.968Z,36.97
2022-08-20T08:33:27.148Z,35.87
2022-08-20T08:34:37.233Z,33.52
2022-08-20T08:35:46.767Z,32.28
2022-08-20T08:36:51.072Z,30.67
2022-08-20T08:37:55.093Z,30.59
2022-08-20T08:38:59.671Z,29.72
2022-08-20T08:40:06.274Z,29.24
2022-08-20T08:41:32.281Z,29.53
2022-08-20T08:42:46.755Z,29.38
2022-08-20T08:43:54.378Z,28.92
2022-08-20T08:45:00.789Z,28.56
2022-08-20T08:46:10.845Z,28.29
2022-08-20T08:47:38.072Z,28.00
2022-08-20T08:48:47.964Z,27.56
2022-08-20T08:49:52.094Z,26.94
2022-08-20T08:50:59.775Z,27.17
2022-08-20T08:52:12.534Z,27.51
2022-08-20T08:53:24.932Z,27.46
2022-08-20T08:54:32.641Z,27.30
2022-08-20T08:55:36.662Z,26.95
2022-08-20T08:56:40.657Z,27.30
2022-08-20T08:57:46.043Z,26.80
2022-08-20T08:58:49.991Z,26.81
2022-08-20T09:00:14.119Z,27.27
2022-08-20T09:01:54.504Z,27.17
2022-08-20T09:03:22.032Z,26.65
2022-08-20T09:04:39.473Z,26.50
2022-08-20T09:05:55.362Z,26.42
2022-08-20T09:07:02.016Z,26.05
2022-08-20T09:08:16.888Z,26.31
2022-08-20T09:09:32.369Z,26.40
2022-08-20T09:10:36.953Z,26.60
2022-08-20T09:12:21.112Z,26.97
2022-08-20T09:13:25.300Z,26.51
2022-08-20T09:14:29.373Z,26.62
2022-08-20T09:15:33.615Z,26.10
2022-08-20T09:16:45.742Z,25.91
2022-08-20T09:17:57.780Z,25.98
2022-08-20T09:19:04.781Z,26.06
2022-08-20T09:20:11.451Z,26.14
2022-08-20T09:21:15.433Z,26.33
2022-08-20T09:22:26.080Z,26.35
2022-08-20T09:23:30.492Z,27.00
2022-08-20T09:24:34.301Z,27.69
2022-08-20T09:25:38.366Z,28.08
2022-08-20T09:26:42.314Z,28.80
2022-08-20T09:27:46.292Z,29.79
2022-08-20T09:28:52.638Z,29.85
2022-08-20T09:29:56.875Z,30.79
2022-08-20T09:31:00.832Z,30.90
2022-08-20T09:32:10.097Z,31.54
2022-08-20T09:33:14.099Z,31.94
2022-08-20T09:34:17.972Z,32.37
2022-08-20T09:35:22.552Z,32.82
2022-08-20T09:36:32.032Z,33.01
2022-08-20T09:37:37.940Z,33.07
2022-08-20T09:38:41.997Z,33.23
2022-08-20T09:39:45.857Z,33.29
2022-08-20T09:40:50.081Z,33.51
2022-08-20T09:41:54.040Z,33.14
2022-08-20T09:42:58.232Z,33.71
2022-08-20T09:44:02.779Z,33.87
2022-08-20T09:45:10.885Z,33.96
2022-08-20T09:46:18.125Z,34.41
2022-08-20T09:47:22.984Z,34.62
2022-08-20T09:48:29.600Z,34.78
2022-08-20T09:49:40.824Z,34.93
2022-08-20T09:50:49.752Z,35.08
2022-08-20T09:51:53.624Z,35.13
2022-08-20T09:53:01.125Z,35.31
2022-08-20T09:54:06.259Z,35.46
2022-08-20T09:55:30.834Z,35.88
2022-08-20T09:56:36.308Z,35.65
2022-08-20T09:57:41.297Z,36.04
2022-08-20T09:58:53.096Z,35.86
2022-08-20T10:00:09.181Z,36.28
2022-08-20T10:01:18.563Z,35.77
2022-08-20T10:02:25.255Z,35.82
2022-08-20T10:03:29.153Z,36.09
2022-08-20T10:04:33.042Z,36.10
2022-08-20T10:05:37.156Z,36.53
2022-08-20T10:06:42.531Z,36.69
2022-08-20T10:07:46.378Z,36.38
2022-08-20T10:08:51.029Z,36.29
2022-08-20T10:09:55.351Z,36.39
2022-08-20T10:10:59.752Z,36.87
2022-08-20T10:12:04.838Z,37.04
2022-08-20T10:13:08.847Z,37.17
2022-08-20T10:14:17.208Z,37.07
2022-08-20T10:15:21.160Z,37.43
2022-08-20T10:16:25.879Z,37.84
2022-08-20T10:17:29.783Z,38.30
2022-08-20T10:18:35.712Z,38.98
2022-08-20T10:19:39.768Z,39.10
2022-08-20T10:20:43.883Z,39.31
2022-08-20T10:21:50.972Z,39.21
2022-08-20T10:22:54.775Z,39.56
2022-08-20T10:24:00.090Z,39.63
2022-08-20T10:25:07.026Z,39.59
2022-08-20T10:26:12.713Z,39.66
2022-08-20T10:27:16.868Z,39.68
2022-08-20T10:28:21.848Z,39.52
2022-08-20T10:29:29.247Z,39.62
2022-08-20T10:30:34.130Z,39.61
2022-08-20T10:31:38.244Z,39.99
2022-08-20T10:32:42.881Z,39.71
2022-08-20T10:33:47.713Z,39.96
2022-08-20T10:34:53.108Z,39.91
2022-08-20T10:36:00.077Z,40.13
2022-08-20T10:37:04.223Z,40.36
2022-08-20T10:38:08.503Z,40.63
2022-08-20T10:39:13.161Z,40.80
2022-08-20T10:40:17.404Z,40.74
2022-08-20T10:41:21.763Z,41.28
2022-08-20T10:42:25.541Z,41.36
2022-08-20T10:43:29.457Z,41.24
2022-08-20T10:44:33.480Z,41.50
2022-08-20T10:45:37.323Z,42.01
2022-08-20T10:46:45.947Z,41.92
2022-08-20T10:47:49.826Z,41.72
2022-08-20T10:48:54.470Z,41.88
2022-08-20T10:50:02.483Z,41.74
2022-08-20T10:51:07.025Z,42.18
2022-08-20T10:52:11.057Z,41.91
2022-08-20T10:53:15.107Z,42.13
2022-08-20T10:54:19.035Z,41.56
2022-08-20T10:55:23.387Z,41.38
2022-08-20T10:56:27.373Z,41.26
2022-08-20T10:57:36.583Z,41.33
2022-08-20T10:58:40.454Z,41.28
2022-08-20T10:59:48.987Z,41.61
2022-08-20T11:00:53.679Z,41.33
2022-08-20T11:01:57.716Z,41.13
2022-08-20T11:03:02.024Z,41.43
2022-08-20T11:04:05.941Z,41.54
2022-08-20T11:05:10.812Z,41.29
2022-08-20T11:06:15.301Z,41.39
2022-08-20T11:07:55.501Z,41.46
2022-08-20T11:08:58.481Z,40.83
2022-08-20T11:10:04.080Z,41.22
2022-08-20T11:11:09.014Z,41.15
2022-08-20T11:12:14.514Z,41.08
2022-08-20T11:13:18.515Z,40.98
2022-08-20T11:14:22.507Z,41.04
2022-08-20T11:15:27.435Z,40.74
2022-08-20T11:16:32.038Z,40.37
2022-08-20T11:17:40.159Z,40.47
2022-08-20T11:18:47.497Z,40.37
2022-08-20T11:19:53.363Z,40.27
2022-08-20T11:20:58.201Z,40.36
2022-08-20T11:22:02.281Z,40.49
2022-08-20T11:23:06.477Z,40.92
2022-08-20T11:24:10.817Z,40.56
2022-08-20T11:25:15.945Z,40.51
2022-08-20T11:26:25.701Z,40.32
2022-08-20T11:27:36.007Z,40.63
2022-08-20T11:28:40.104Z,40.84
2022-08-20T11:29:43.916Z,40.78
2022-08-20T11:30:50.280Z,40.76
2022-08-20T11:31:54.143Z,41.01
2022-08-20T11:33:00.935Z,40.52
2022-08-20T11:34:07.384Z,40.94
2022-08-20T11:35:41.726Z,41.02
2022-08-20T11:36:40.901Z,40.79
2022-08-20T11:37:45.237Z,41.04
2022-08-20T11:38:50.159Z,41.35
2022-08-20T11:39:55.319Z,41.17
2022-08-20T11:40:59.292Z,41.52
2022-08-20T11:42:03.518Z,41.53
2022-08-20T11:43:16.324Z,41.58
2022-08-20T11:44:21.758Z,41.85
2022-08-20T11:45:25.773Z,41.97
2022-08-20T11:46:29.840Z,41.93
2022-08-20T11:47:36.029Z,42.05
2022-08-20T11:48:40.029Z,41.94
2022-08-20T11:49:43.868Z,41.97
2022-08-20T11:50:49.159Z,41.71
2022-08-20T11:51:53.341Z,41.97
2022-08-20T11:52:57.185Z,41.76
2022-08-20T11:54:02.571Z,41.90
2022-08-20T11:55:12.507Z,42.07
2022-08-20T11:56:20.806Z,41.88
2022-08-20T11:57:30.327Z,41.39
2022-08-20T11:58:34.753Z,41.67
2022-08-20T11:59:38.747Z,40.97
2022-08-20T12:00:43.357Z,41.56
2022-08-20T12:02:02.454Z,41.35
2022-08-20T12:03:11.852Z,41.78
2022-08-20T12:04:16.356Z,41.88
2022-08-20T12:05:20.861Z,42.11
2022-08-20T12:06:24.759Z,42.23
2022-08-20T12:07:28.965Z,41.95
2022-08-20T12:08:32.668Z,42.29
2022-08-20T12:09:41.151Z,42.25
2022-08-20T12:10:54.238Z,42.08
2022-08-20T12:11:58.032Z,41.80
2022-08-20T12:13:02.726Z,41.82
2022-08-20T12:14:08.864Z,41.68
2022-08-20T12:15:17.353Z,41.77
2022-08-20T12:16:22.874Z,41.79
2022-08-20T12:17:30.469Z,41.72
2022-08-20T12:18:34.689Z,41.71
2022-08-20T12:19:43.955Z,41.95
2022-08-20T12:20:48.253Z,41.63
2022-08-20T12:21:57.746Z,41.61
2022-08-20T12:23:01.684Z,42.04
2022-08-20T12:24:05.695Z,41.92
2022-08-20T12:25:10.166Z,42.23
2022-08-20T12:26:17.109Z,42.30
2022-08-20T12:27:26.816Z,42.38
2022-08-20T12:28:32.199Z,42.30
2022-08-20T12:29:36.278Z,42.23
2022-08-20T12:30:42.375Z,42.13
2022-08-20T12:31:46.246Z,42.41
2022-08-20T12:32:50.710Z,42.33
2022-08-20T12:33:54.557Z,42.98
2022-08-20T12:34:59.373Z,42.93
2022-08-20T12:36:03.678Z,43.49
2022-08-20T12:37:18.647Z,43.21
2022-08-20T12:38:22.434Z,43.36
2022-08-20T12:39:26.444Z,43.36
2022-08-20T12:40:32.907Z,43.25
2022-08-20T12:41:36.989Z,43.37
2022-08-20T12:42:41.495Z,43.22
2022-08-20T12:43:45.247Z,43.40
2022-08-20T12:44:50.821Z,43.30
2022-08-20T12:45:55.732Z,43.42
2022-08-20T12:47:11.453Z,43.55
2022-08-20T12:48:16.065Z,43.57
2022-08-20T12:49:19.919Z,43.40
2022-08-20T12:50:31.294Z,43.78
2022-08-20T12:51:35.628Z,43.70
2022-08-20T12:52:41.466Z,44.11
2022-08-20T12:53:45.264Z,43.95
2022-08-20T12:54:50.092Z,44.32
2022-08-20T12:55:53.998Z,44.30
2022-08-20T12:56:58.096Z,44.24
2022-08-20T12:58:04.971Z,44.49
2022-08-20T12:59:09.408Z,44.49
2022-08-20T13:00:24.313Z,44.37
2022-08-20T13:01:28.369Z,44.37
2022-08-20T13:02:32.600Z,44.69
2022-08-20T13:03:40.198Z,44.28
2022-08-20T13:04:49.653Z,44.73
2022-08-20T13:05:53.475Z,44.64
2022-08-20T13:07:05.622Z,44.57
2022-08-20T13:08:14.349Z,44.91
2022-08-20T13:09:19.068Z,45.27
2022-08-20T13:10:32.153Z,45.58
2022-08-20T13:11:36.201Z,45.62
2022-08-20T13:12:40.282Z,45.47
2022-08-20T13:13:46.607Z,45.59
2022-08-20T13:14:50.471Z,45.72
2022-08-20T13:15:54.646Z,45.84
2022-08-20T13:17:03.119Z,46.50
2022-08-20T13:18:08.684Z,46.14
2022-08-20T13:19:12.777Z,46.58
2022-08-20T13:20:18.268Z,46.55
2022-08-20T13:21:24.022Z,46.78
2022-08-20T13:22:28.032Z,47.72
2022-08-20T13:23:31.899Z,48.82
2022-08-20T13:24:35.746Z,50.12
2022-08-20T13:25:39.538Z,51.04
2022-08-20T13:26:43.501Z,52.13
2022-08-20T13:27:48.107Z,53.50
2022-08-20T13:28:52.242Z,54.01
2022-08-20T13:29:59.099Z,54.94
2022-08-20T13:31:03.699Z,55.42
2022-08-20T13:32:08.978Z,56.03
2022-08-20T13:33:12.934Z,56.15
2022-08-20T13:34:16.726Z,56.83
2022-08-20T13:35:20.958Z,57.63
2022-08-20T13:36:25.179Z,58.46
2022-08-20T13:37:30.507Z,58.85
2022-08-20T13:38:34.622Z,58.56
2022-08-20T13:39:40.495Z,58.99
2022-08-20T13:40:44.459Z,58.97
2022-08-20T13:41:52.546Z,56.70
2022-08-20T13:42:56.544Z,55.81
2022-08-20T13:44:00.632Z,55.33
2022-08-20T13:45:07.406Z,54.77
2022-08-20T13:46:12.262Z,54.21
2022-08-20T13:47:24.030Z,52.93
2022-08-20T13:48:28.056Z,53.04
2022-08-20T13:49:33.850Z,53.31
2022-08-20T13:50:38.396Z,53.23
2022-08-20T13:51:42.140Z,52.45
2022-08-20T13:52:47.316Z,51.99
2022-08-20T13:53:52.309Z,52.21
2022-08-20T13:54:56.333Z,51.54
2022-08-20T13:56:00.746Z,51.53
2022-08-20T13:57:11.404Z,51.45
2022-08-20T13:58:18.508Z,51.07
2022-08-20T13:59:22.426Z,51.35
2022-08-20T14:00:32.576Z,50.97
2022-08-20T14:01:36.672Z,51.09
2022-08-20T14:02:42.882Z,51.68
2022-08-20T14:03:48.048Z,51.59
2022-08-20T14:04:53.851Z,51.32
2022-08-20T14:05:58.132Z,51.71
2022-08-20T14:07:17.870Z,52.24
2022-08-20T14:08:24.377Z,52.54
2022-08-20T14:09:28.900Z,51.99
2022-08-20T14:10:33.672Z,52.50
2022-08-20T14:11:37.463Z,52.21
2022-08-20T14:12:42.031Z,52.71
2022-08-20T14:13:45.864Z,53.21
2022-08-20T14:14:52.120Z,53.70
2022-08-20T14:15:56.941Z,54.04
2022-08-20T14:17:11.640Z,54.81
2022-08-20T14:18:16.511Z,54.52
2022-08-20T14:19:20.435Z,54.27
2022-08-20T14:20:32.142Z,55.29
2022-08-20T14:21:36.851Z,55.31
2022-08-20T14:22:42.758Z,54.86
2022-08-20T14:23:46.913Z,56.14
2022-08-20T14:24:52.051Z,56.35
2022-08-20T14:25:56.756Z,55.97
2022-08-20T14:27:00.846Z,56.50
2022-08-20T14:28:23.656Z,57.47
2022-08-20T14:29:27.737Z,57.34
2022-08-20T14:30:36.766Z,57.48